PWSweather.com
Personal Weather Stations
Station Observations
PICKERING
North Yorkshire, PickeringGB

North YorkshirePickeringGB

Lat: 54.2494, Lon: -0.7725

Elevation: 192

Station Type: Oregon Scientific WMR100

http://www.yorkshirewalker.co.uk/weather/

High Low Average
Temperature 63.7°F17.6°C 41.0°F5.0°C 51.3°F10.7°C
Dew Point 55.4°F13.0°C 37.4°F3.0°C 45.3°F7.4°C
Winds 7.9 mph 12.7 kmh Calm Calm 2.0 mph S3.2 kmh S
Wind Gusts 12.3 mph19.8 kmh -- 4.0 mph6.4 kmh
Humidity 83% 68% 79%
Pressure 29.53 in1000.0 mb 29.12 in986.1 mb -
Precipitation 0.00 in0.0 mm - -
Hour Temp Dew Point Humidity Winds Wind Gusts Pressure Precip Precip Rate Daily Precip Total
12:00 AM 47.5°F8.6°C 42.8°F6.0°C 80% 3.3 mph SSW5.3 kmh SSW 5.8 mph9.3 kmh 29.15 in987.1 mb 0.00 in0.0 mm 0.00 in0.0 mm 0.00 in0.0 mm
12:05 AM 47.5°F8.6°C 42.8°F6.0°C 80% 3.1 mph SSW5.0 kmh SSW 5.8 mph9.3 kmh 29.15 in987.1 mb 0.00 in0.0 mm 0.00 in0.0 mm 0.00 in0.0 mm
12:10 AM 47.7°F8.7°C 42.8°F6.0°C 80% 2.9 mph SSW4.7 kmh SSW 5.4 mph8.7 kmh 29.15 in987.1 mb 0.00 in0.0 mm 0.00 in0.0 mm 0.00 in0.0 mm
12:15 AM 47.7°F8.7°C 42.8°F6.0°C 80% 2.8 mph SSW4.5 kmh SSW 5.4 mph8.7 kmh 29.15 in987.1 mb 0.00 in0.0 mm 0.00 in0.0 mm 0.00 in0.0 mm
12:20 AM 47.7°F8.7°C 42.8°F6.0°C 80% 2.4 mph SSW3.9 kmh SSW 5.4 mph8.7 kmh 29.15 in987.1 mb 0.00 in0.0 mm 0.00 in0.0 mm 0.00 in0.0 mm
12:25 AM 47.7°F8.7°C 42.8°F6.0°C 80% 0.9 mph SSW1.4 kmh SSW 2.7 mph4.3 kmh 29.12 in986.1 mb 0.00 in0.0 mm 0.00 in0.0 mm 0.00 in0.0 mm
12:30 AM 47.7°F8.7°C 42.8°F6.0°C 80% 0.3 mph S0.5 kmh S 1.1 mph1.8 kmh 29.12 in986.1 mb 0.00 in0.0 mm 0.00 in0.0 mm 0.00 in0.0 mm
12:35 AM 47.7°F8.7°C 42.8°F6.0°C 80% 0.5 mph S0.8 kmh S 1.3 mph2.1 kmh 29.12 in986.1 mb 0.00 in0.0 mm 0.00 in0.0 mm 0.00 in0.0 mm
12:40 AM 47.7°F8.7°C 42.8°F6.0°C 80% 1.2 mph S1.9 kmh S 2.0 mph3.2 kmh 29.15 in987.1 mb 0.00 in0.0 mm 0.00 in0.0 mm 0.00 in0.0 mm
12:45 AM 47.7°F8.7°C 42.8°F6.0°C 80% 1.1 mph S1.8 kmh S 2.0 mph3.2 kmh 29.15 in987.1 mb 0.00 in0.0 mm 0.00 in0.0 mm 0.00 in0.0 mm
12:50 AM 47.7°F8.7°C 42.8°F6.0°C 80% 0.8 mph S1.3 kmh S 1.3 mph2.1 kmh 29.15 in987.1 mb 0.00 in0.0 mm 0.00 in0.0 mm 0.00 in0.0 mm
12:55 AM 47.7°F8.7°C 42.8°F6.0°C 80% 1.1 mph S1.8 kmh S 2.0 mph3.2 kmh 29.15 in987.1 mb 0.00 in0.0 mm 0.00 in0.0 mm 0.00 in0.0 mm
01:00 AM 47.7°F8.7°C 42.8°F6.0°C 80% 0.8 mph S1.3 kmh S 2.2 mph3.5 kmh 29.15 in987.1 mb 0.00 in0.0 mm 0.00 in0.0 mm 0.00 in0.0 mm
01:05 AM 47.7°F8.7°C 42.8°F6.0°C 80% 0.7 mph S1.1 kmh S 2.5 mph4.0 kmh 29.15 in987.1 mb 0.00 in0.0 mm 0.00 in0.0 mm 0.00 in0.0 mm
01:10 AM 47.7°F8.7°C 42.8°F6.0°C 80% 1.0 mph S1.6 kmh S 2.5 mph4.0 kmh 29.18 in988.1 mb 0.00 in0.0 mm 0.00 in0.0 mm 0.00 in0.0 mm
01:15 AM 47.7°F8.7°C 42.8°F6.0°C 80% 1.3 mph S2.1 kmh S 3.4 mph5.5 kmh 29.18 in988.1 mb 0.00 in0.0 mm 0.00 in0.0 mm 0.00 in0.0 mm
01:20 AM 47.7°F8.7°C 42.8°F6.0°C 80% 2.4 mph S3.9 kmh S 4.3 mph6.9 kmh 29.18 in988.1 mb 0.00 in0.0 mm 0.00 in0.0 mm 0.00 in0.0 mm
01:25 AM 47.7°F8.7°C 42.8°F6.0°C 80% 3.0 mph SSW4.8 kmh SSW 4.7 mph7.6 kmh 29.15 in987.1 mb 0.00 in0.0 mm 0.00 in0.0 mm 0.00 in0.0 mm
01:30 AM 47.8°F8.8°C 42.8°F6.0°C 80% 2.6 mph SSW4.2 kmh SSW 4.7 mph7.6 kmh 29.15 in987.1 mb 0.00 in0.0 mm 0.00 in0.0 mm 0.00 in0.0 mm
01:35 AM 47.8°F8.8°C 42.8°F6.0°C 80% 1.8 mph S2.9 kmh S 3.1 mph5.0 kmh 29.15 in987.1 mb 0.00 in0.0 mm 0.00 in0.0 mm 0.00 in0.0 mm
01:40 AM 47.8°F8.8°C 42.8°F6.0°C 80% 1.1 mph S1.8 kmh S 2.5 mph4.0 kmh 29.18 in988.1 mb 0.00 in0.0 mm 0.00 in0.0 mm 0.00 in0.0 mm
01:45 AM 48.0°F8.9°C 42.8°F6.0°C 80% 0.3 mph S0.5 kmh S 1.3 mph2.1 kmh 29.18 in988.1 mb 0.00 in0.0 mm 0.00 in0.0 mm 0.00 in0.0 mm
01:50 AM 48.0°F8.9°C 42.8°F6.0°C 80% 0.1 mph SE0.2 kmh SE 1.1 mph1.8 kmh 29.18 in988.1 mb 0.00 in0.0 mm 0.00 in0.0 mm 0.00 in0.0 mm
01:55 AM 48.0°F8.9°C 42.8°F6.0°C 80% 0.3 mph SE0.5 kmh SE 2.2 mph3.5 kmh 29.12 in986.1 mb 0.00 in0.0 mm 0.00 in0.0 mm 0.00 in0.0 mm
02:00 AM 48.0°F8.9°C 42.8°F6.0°C 80% 0.8 mph SSE1.3 kmh SSE 2.7 mph4.3 kmh 29.12 in986.1 mb 0.00 in0.0 mm 0.00 in0.0 mm 0.00 in0.0 mm
02:05 AM 47.8°F8.8°C 42.8°F6.0°C 80% 1.1 mph SSE1.8 kmh SSE 2.7 mph4.3 kmh 29.12 in986.1 mb 0.00 in0.0 mm 0.00 in0.0 mm 0.00 in0.0 mm
02:10 AM 48.0°F8.9°C 42.8°F6.0°C 80% 1.8 mph SSE2.9 kmh SSE 3.4 mph5.5 kmh 29.12 in986.1 mb 0.00 in0.0 mm 0.00 in0.0 mm 0.00 in0.0 mm
02:15 AM 48.0°F8.9°C 42.8°F6.0°C 80% 2.4 mph SSE3.9 kmh SSE 3.4 mph5.5 kmh 29.12 in986.1 mb 0.00 in0.0 mm 0.00 in0.0 mm 0.00 in0.0 mm
02:20 AM 48.0°F8.9°C 42.8°F6.0°C 80% 2.8 mph S4.5 kmh S 4.9 mph7.9 kmh 29.12 in986.1 mb 0.00 in0.0 mm 0.00 in0.0 mm 0.00 in0.0 mm
02:25 AM 48.0°F8.9°C 42.8°F6.0°C 80% 3.0 mph S4.8 kmh S 4.9 mph7.9 kmh 29.15 in987.1 mb 0.00 in0.0 mm 0.00 in0.0 mm 0.00 in0.0 mm
02:30 AM 48.0°F8.9°C 42.8°F6.0°C 80% 2.3 mph S3.7 kmh S 4.9 mph7.9 kmh 29.15 in987.1 mb 0.00 in0.0 mm 0.00 in0.0 mm 0.00 in0.0 mm
02:35 AM 48.0°F8.9°C 42.8°F6.0°C 80% 1.7 mph S2.7 kmh S 3.4 mph5.5 kmh 29.15 in987.1 mb 0.00 in0.0 mm 0.00 in0.0 mm 0.00 in0.0 mm
02:40 AM 48.0°F8.9°C 42.8°F6.0°C 81% 1.9 mph S3.1 kmh S 3.6 mph5.8 kmh 29.15 in987.1 mb 0.00 in0.0 mm 0.00 in0.0 mm 0.00 in0.0 mm
02:45 AM 48.0°F8.9°C 42.8°F6.0°C 81% 2.8 mph SSW4.5 kmh SSW 5.6 mph9.0 kmh 29.15 in987.1 mb 0.00 in0.0 mm 0.00 in0.0 mm 0.00 in0.0 mm
02:50 AM 48.0°F8.9°C 42.8°F6.0°C 81% 2.7 mph SW4.3 kmh SW 5.6 mph9.0 kmh 29.15 in987.1 mb 0.00 in0.0 mm 0.00 in0.0 mm 0.00 in0.0 mm
02:55 AM 48.0°F8.9°C 42.8°F6.0°C 81% 2.3 mph SSW3.7 kmh SSW 5.6 mph9.0 kmh 29.15 in987.1 mb 0.00 in0.0 mm 0.00 in0.0 mm 0.00 in0.0 mm
03:00 AM 48.2°F9.0°C 42.8°F6.0°C 81% 2.4 mph SSW3.9 kmh SSW 5.4 mph8.7 kmh 29.15 in987.1 mb 0.00 in0.0 mm 0.00 in0.0 mm 0.00 in0.0 mm
03:05 AM 48.2°F9.0°C 42.8°F6.0°C 81% 3.0 mph SSW4.8 kmh SSW 5.4 mph8.7 kmh 29.15 in987.1 mb 0.00 in0.0 mm 0.00 in0.0 mm 0.00 in0.0 mm
03:10 AM 48.2°F9.0°C 42.8°F6.0°C 81% 2.9 mph SSW4.7 kmh SSW 4.3 mph6.9 kmh 29.15 in987.1 mb 0.00 in0.0 mm 0.00 in0.0 mm 0.00 in0.0 mm
03:15 AM 48.2°F9.0°C 42.8°F6.0°C 81% 3.2 mph SSW5.1 kmh SSW 6.5 mph10.5 kmh 29.15 in987.1 mb 0.00 in0.0 mm 0.00 in0.0 mm 0.00 in0.0 mm
03:20 AM 48.2°F9.0°C 42.8°F6.0°C 81% 3.2 mph SW5.1 kmh SW 6.5 mph10.5 kmh 29.15 in987.1 mb 0.00 in0.0 mm 0.00 in0.0 mm 0.00 in0.0 mm
03:25 AM 48.2°F9.0°C 42.8°F6.0°C 81% 2.9 mph SSW4.7 kmh SSW 5.6 mph9.0 kmh 29.15 in987.1 mb 0.00 in0.0 mm 0.00 in0.0 mm 0.00 in0.0 mm
03:30 AM 48.2°F9.0°C 42.8°F6.0°C 81% 2.8 mph SSW4.5 kmh SSW 4.9 mph7.9 kmh 29.15 in987.1 mb 0.00 in0.0 mm 0.00 in0.0 mm 0.00 in0.0 mm
03:35 AM 48.2°F9.0°C 42.8°F6.0°C 81% 2.1 mph S3.4 kmh S 4.3 mph6.9 kmh 29.15 in987.1 mb 0.00 in0.0 mm 0.00 in0.0 mm 0.00 in0.0 mm
03:40 AM 48.2°F9.0°C 42.8°F6.0°C 81% 2.3 mph S3.7 kmh S 4.3 mph6.9 kmh 29.15 in987.1 mb 0.00 in0.0 mm 0.00 in0.0 mm 0.00 in0.0 mm
03:45 AM 48.0°F8.9°C 42.8°F6.0°C 81% 2.5 mph S4.0 kmh S 5.4 mph8.7 kmh 29.15 in987.1 mb 0.00 in0.0 mm 0.00 in0.0 mm 0.00 in0.0 mm
03:50 AM 48.0°F8.9°C 42.8°F6.0°C 81% 2.0 mph SSW3.2 kmh SSW 5.4 mph8.7 kmh 29.15 in987.1 mb 0.00 in0.0 mm 0.00 in0.0 mm 0.00 in0.0 mm
03:55 AM 48.0°F8.9°C 42.8°F6.0°C 81% 1.6 mph SSW2.6 kmh SSW 3.6 mph5.8 kmh 29.12 in986.1 mb 0.00 in0.0 mm 0.00 in0.0 mm 0.00 in0.0 mm
04:00 AM 48.0°F8.9°C 42.8°F6.0°C 81% 1.4 mph SW2.3 kmh SW 3.4 mph5.5 kmh 29.12 in986.1 mb 0.00 in0.0 mm 0.00 in0.0 mm 0.00 in0.0 mm
04:05 AM 48.0°F8.9°C 42.8°F6.0°C 82% 1.6 mph SSW2.6 kmh SSW 2.7 mph4.3 kmh 29.12 in986.1 mb 0.00 in0.0 mm 0.00 in0.0 mm 0.00 in0.0 mm
04:10 AM 48.0°F8.9°C 42.8°F6.0°C 82% 1.6 mph SW2.6 kmh SW 3.4 mph5.5 kmh 29.15 in987.1 mb 0.00 in0.0 mm 0.00 in0.0 mm 0.00 in0.0 mm
04:15 AM 48.0°F8.9°C 42.8°F6.0°C 82% 1.1 mph SW1.8 kmh SW 3.4 mph5.5 kmh 29.15 in987.1 mb 0.00 in0.0 mm 0.00 in0.0 mm 0.00 in0.0 mm
04:20 AM 48.0°F8.9°C 42.8°F6.0°C 82% 1.0 mph SW1.6 kmh SW 3.6 mph5.8 kmh 29.15 in987.1 mb 0.00 in0.0 mm 0.00 in0.0 mm 0.00 in0.0 mm
04:25 AM 48.2°F9.0°C 42.8°F6.0°C 82% 1.5 mph SW2.4 kmh SW 3.6 mph5.8 kmh 29.15 in987.1 mb 0.00 in0.0 mm 0.00 in0.0 mm 0.00 in0.0 mm
04:30 AM 48.2°F9.0°C 42.8°F6.0°C 82% 1.5 mph SW2.4 kmh SW 3.1 mph5.0 kmh 29.15 in987.1 mb 0.00 in0.0 mm 0.00 in0.0 mm 0.00 in0.0 mm
04:35 AM 48.4°F9.1°C 42.8°F6.0°C 82% 1.7 mph SSW2.7 kmh SSW 6.5 mph10.5 kmh 29.15 in987.1 mb 0.00 in0.0 mm 0.00 in0.0 mm 0.00 in0.0 mm
04:40 AM 48.4°F9.1°C 42.8°F6.0°C 82% 2.0 mph SSW3.2 kmh SSW 6.5 mph10.5 kmh 29.12 in986.1 mb 0.00 in0.0 mm 0.00 in0.0 mm 0.00 in0.0 mm
04:45 AM 48.4°F9.1°C 42.8°F6.0°C 82% 2.2 mph SSW3.5 kmh SSW 3.6 mph5.8 kmh 29.12 in986.1 mb 0.00 in0.0 mm 0.00 in0.0 mm 0.00 in0.0 mm
04:50 AM 48.4°F9.1°C 42.8°F6.0°C 82% 2.0 mph SW3.2 kmh SW 3.4 mph5.5 kmh 29.12 in986.1 mb 0.00 in0.0 mm 0.00 in0.0 mm 0.00 in0.0 mm
04:55 AM 48.4°F9.1°C 42.8°F6.0°C 82% 2.0 mph SW3.2 kmh SW 3.4 mph5.5 kmh 29.12 in986.1 mb 0.00 in0.0 mm 0.00 in0.0 mm 0.00 in0.0 mm
05:00 AM 48.2°F9.0°C 42.8°F6.0°C 82% 1.9 mph SSW3.1 kmh SSW 2.9 mph4.7 kmh 29.12 in986.1 mb 0.00 in0.0 mm 0.00 in0.0 mm 0.00 in0.0 mm
05:05 AM 48.2°F9.0°C 42.8°F6.0°C 82% 1.8 mph SSW2.9 kmh SSW 4.9 mph7.9 kmh 29.12 in986.1 mb 0.00 in0.0 mm 0.00 in0.0 mm 0.00 in0.0 mm
05:10 AM 47.8°F8.8°C 42.8°F6.0°C 82% 1.8 mph SSW2.9 kmh SSW 4.9 mph7.9 kmh 29.15 in987.1 mb 0.00 in0.0 mm 0.00 in0.0 mm 0.00 in0.0 mm
05:15 AM 47.8°F8.8°C 42.8°F6.0°C 82% 1.4 mph SW2.3 kmh SW 2.9 mph4.7 kmh 29.15 in987.1 mb 0.00 in0.0 mm 0.00 in0.0 mm 0.00 in0.0 mm
05:20 AM 47.7°F8.7°C 42.8°F6.0°C 83% 1.0 mph SW1.6 kmh SW 2.7 mph4.3 kmh 29.15 in987.1 mb 0.00 in0.0 mm 0.00 in0.0 mm 0.00 in0.0 mm
05:25 AM 47.5°F8.6°C 42.8°F6.0°C 83% 1.2 mph SW1.9 kmh SW 2.5 mph4.0 kmh 29.15 in987.1 mb 0.00 in0.0 mm 0.00 in0.0 mm 0.00 in0.0 mm
05:30 AM 47.7°F8.7°C 42.8°F6.0°C 83% 1.9 mph SW3.1 kmh SW 4.9 mph7.9 kmh 29.15 in987.1 mb 0.00 in0.0 mm 0.00 in0.0 mm 0.00 in0.0 mm
05:35 AM 47.7°F8.7°C 42.8°F6.0°C 83% 2.2 mph SW3.5 kmh SW 4.9 mph7.9 kmh 29.15 in987.1 mb 0.00 in0.0 mm 0.00 in0.0 mm 0.00 in0.0 mm
05:40 AM 47.7°F8.7°C 42.8°F6.0°C 83% 1.6 mph SW2.6 kmh SW 2.7 mph4.3 kmh 29.15 in987.1 mb 0.00 in0.0 mm 0.00 in0.0 mm 0.00 in0.0 mm
05:45 AM 47.7°F8.7°C 42.8°F6.0°C 83% 1.1 mph SW1.8 kmh SW 1.6 mph2.6 kmh 29.15 in987.1 mb 0.00 in0.0 mm 0.00 in0.0 mm 0.00 in0.0 mm
05:50 AM 47.7°F8.7°C 42.8°F6.0°C 83% 0.8 mph SSW1.3 kmh SSW 2.2 mph3.5 kmh 29.15 in987.1 mb 0.00 in0.0 mm 0.00 in0.0 mm 0.00 in0.0 mm
05:55 AM 47.7°F8.7°C 42.8°F6.0°C 83% 0.6 mph S1.0 kmh S 2.2 mph3.5 kmh 29.15 in987.1 mb 0.00 in0.0 mm 0.00 in0.0 mm 0.00 in0.0 mm
06:00 AM 47.7°F8.7°C 42.8°F6.0°C 83% 0.6 mph S1.0 kmh S 1.6 mph2.6 kmh 29.15 in987.1 mb 0.00 in0.0 mm 0.00 in0.0 mm 0.00 in0.0 mm
06:05 AM 47.7°F8.7°C 42.8°F6.0°C 83% 0.5 mph S0.8 kmh S 1.6 mph2.6 kmh 29.15 in987.1 mb 0.00 in0.0 mm 0.00 in0.0 mm 0.00 in0.0 mm
06:10 AM 47.7°F8.7°C 42.8°F6.0°C 83% 0.9 mph SW1.4 kmh SW 2.0 mph3.2 kmh 29.15 in987.1 mb 0.00 in0.0 mm 0.00 in0.0 mm 0.00 in0.0 mm
06:15 AM 47.7°F8.7°C 42.8°F6.0°C 83% 1.7 mph WSW2.7 kmh WSW 3.4 mph5.5 kmh 29.15 in987.1 mb 0.00 in0.0 mm 0.00 in0.0 mm 0.00 in0.0 mm
06:20 AM 47.7°F8.7°C 42.8°F6.0°C 83% 2.0 mph WSW3.2 kmh WSW 3.4 mph5.5 kmh 29.15 in987.1 mb 0.00 in0.0 mm 0.00 in0.0 mm 0.00 in0.0 mm
06:25 AM 47.8°F8.8°C 42.8°F6.0°C 83% 2.7 mph WSW4.3 kmh WSW 4.7 mph7.6 kmh 29.15 in987.1 mb 0.00 in0.0 mm 0.00 in0.0 mm 0.00 in0.0 mm
06:30 AM 47.8°F8.8°C 42.8°F6.0°C 83% 3.2 mph WSW5.1 kmh WSW 4.7 mph7.6 kmh 29.15 in987.1 mb 0.00 in0.0 mm 0.00 in0.0 mm 0.00 in0.0 mm
06:35 AM 48.0°F8.9°C 42.8°F6.0°C 83% 2.8 mph WSW4.5 kmh WSW 3.8 mph6.1 kmh 29.15 in987.1 mb 0.00 in0.0 mm 0.00 in0.0 mm 0.00 in0.0 mm
06:40 AM 48.0°F8.9°C 42.8°F6.0°C 83% 3.1 mph WSW5.0 kmh WSW 5.6 mph9.0 kmh 29.18 in988.1 mb 0.00 in0.0 mm 0.00 in0.0 mm 0.00 in0.0 mm
06:45 AM 48.0°F8.9°C 42.8°F6.0°C 83% 2.8 mph WSW4.5 kmh WSW 5.6 mph9.0 kmh 29.18 in988.1 mb 0.00 in0.0 mm 0.00 in0.0 mm 0.00 in0.0 mm
06:50 AM 48.0°F8.9°C 42.8°F6.0°C 83% 2.3 mph WSW3.7 kmh WSW 3.1 mph5.0 kmh 29.18 in988.1 mb 0.00 in0.0 mm 0.00 in0.0 mm 0.00 in0.0 mm
06:55 AM 48.2°F9.0°C 42.8°F6.0°C 83% 2.4 mph SW3.9 kmh SW 3.4 mph5.5 kmh 29.18 in988.1 mb 0.00 in0.0 mm 0.00 in0.0 mm 0.00 in0.0 mm
07:00 AM 48.2°F9.0°C 42.8°F6.0°C 83% 2.5 mph SW4.0 kmh SW 3.4 mph5.5 kmh 29.18 in988.1 mb 0.00 in0.0 mm 0.00 in0.0 mm 0.00 in0.0 mm
07:05 AM 48.2°F9.0°C 42.8°F6.0°C 83% 2.9 mph WSW4.7 kmh WSW 3.8 mph6.1 kmh 29.18 in988.1 mb 0.00 in0.0 mm 0.00 in0.0 mm 0.00 in0.0 mm
07:10 AM 48.2°F9.0°C 42.8°F6.0°C 83% 3.1 mph W5.0 kmh W 3.8 mph6.1 kmh 29.18 in988.1 mb 0.00 in0.0 mm 0.00 in0.0 mm 0.00 in0.0 mm
07:15 AM 48.2°F9.0°C 42.8°F6.0°C 83% 3.4 mph WSW5.5 kmh WSW 5.4 mph8.7 kmh 29.18 in988.1 mb 0.00 in0.0 mm 0.00 in0.0 mm 0.00 in0.0 mm
07:20 AM 48.2°F9.0°C 42.8°F6.0°C 83% 3.7 mph WSW6.0 kmh WSW 5.6 mph9.0 kmh 29.18 in988.1 mb 0.00 in0.0 mm 0.00 in0.0 mm 0.00 in0.0 mm
07:25 AM 48.4°F9.1°C 42.8°F6.0°C 83% 3.3 mph WSW5.3 kmh WSW 5.6 mph9.0 kmh 29.18 in988.1 mb 0.00 in0.0 mm 0.00 in0.0 mm 0.00 in0.0 mm
07:30 AM 48.4°F9.1°C 42.8°F6.0°C 83% 3.1 mph WSW5.0 kmh WSW 5.4 mph8.7 kmh 29.18 in988.1 mb 0.00 in0.0 mm 0.00 in0.0 mm 0.00 in0.0 mm
07:35 AM 48.6°F9.2°C 44.6°F7.0°C 83% 3.7 mph SW6.0 kmh SW 5.8 mph9.3 kmh 29.18 in988.1 mb 0.00 in0.0 mm 0.00 in0.0 mm 0.00 in0.0 mm
07:40 AM 48.7°F9.3°C 44.6°F7.0°C 83% 3.4 mph SW5.5 kmh SW 5.8 mph9.3 kmh 29.18 in988.1 mb 0.00 in0.0 mm 0.00 in0.0 mm 0.00 in0.0 mm
07:45 AM 48.7°F9.3°C 44.6°F7.0°C 83% 2.2 mph SW3.5 kmh SW 4.3 mph6.9 kmh 29.21 in989.2 mb 0.00 in0.0 mm 0.00 in0.0 mm 0.00 in0.0 mm
07:50 AM 48.9°F9.4°C 44.6°F7.0°C 83% 1.6 mph SW2.6 kmh SW 2.7 mph4.3 kmh 29.21 in989.2 mb 0.00 in0.0 mm 0.00 in0.0 mm 0.00 in0.0 mm
07:55 AM 48.9°F9.4°C 44.6°F7.0°C 83% 1.4 mph SW2.3 kmh SW 2.7 mph4.3 kmh 29.21 in989.2 mb 0.00 in0.0 mm 0.00 in0.0 mm 0.00 in0.0 mm
08:00 AM 49.1°F9.5°C 44.6°F7.0°C 83% 1.3 mph SW2.1 kmh SW 2.7 mph4.3 kmh 29.21 in989.2 mb 0.00 in0.0 mm 0.00 in0.0 mm 0.00 in0.0 mm
08:05 AM 49.3°F9.6°C 44.6°F7.0°C 83% 2.0 mph SW3.2 kmh SW 3.4 mph5.5 kmh 29.21 in989.2 mb 0.00 in0.0 mm 0.00 in0.0 mm 0.00 in0.0 mm
08:10 AM 49.5°F9.7°C 44.6°F7.0°C 83% 2.4 mph SW3.9 kmh SW 4.9 mph7.9 kmh 29.21 in989.2 mb 0.00 in0.0 mm 0.00 in0.0 mm 0.00 in0.0 mm
08:15 AM 49.5°F9.7°C 44.6°F7.0°C 83% 2.0 mph SSW3.2 kmh SSW 4.9 mph7.9 kmh 29.21 in989.2 mb 0.00 in0.0 mm 0.00 in0.0 mm 0.00 in0.0 mm
08:20 AM 49.6°F9.8°C 44.6°F7.0°C 83% 1.8 mph SW2.9 kmh SW 4.9 mph7.9 kmh 29.21 in989.2 mb 0.00 in0.0 mm 0.00 in0.0 mm 0.00 in0.0 mm
08:25 AM 49.8°F9.9°C 44.6°F7.0°C 83% 2.1 mph WSW3.4 kmh WSW 3.6 mph5.8 kmh 29.21 in989.2 mb 0.00 in0.0 mm 0.00 in0.0 mm 0.00 in0.0 mm
08:30 AM 50.0°F10.0°C 44.6°F7.0°C 83% 3.8 mph WSW6.1 kmh WSW 7.8 mph12.6 kmh 29.12 in986.1 mb 0.00 in0.0 mm 0.00 in0.0 mm 0.00 in0.0 mm
08:35 AM 50.0°F10.0°C 44.6°F7.0°C 83% 4.9 mph WSW7.9 kmh WSW 7.8 mph12.6 kmh 29.12 in986.1 mb 0.00 in0.0 mm 0.00 in0.0 mm 0.00 in0.0 mm
08:40 AM 50.2°F10.1°C 44.6°F7.0°C 83% 3.6 mph WSW5.8 kmh WSW 6.0 mph9.7 kmh 29.12 in986.1 mb 0.00 in0.0 mm 0.00 in0.0 mm 0.00 in0.0 mm
08:45 AM 50.4°F10.2°C 46.4°F8.0°C 83% 3.1 mph WSW5.0 kmh WSW 4.7 mph7.6 kmh 29.21 in989.2 mb 0.00 in0.0 mm 0.00 in0.0 mm 0.00 in0.0 mm
08:50 AM 50.7°F10.4°C 46.4°F8.0°C 83% 2.5 mph WSW4.0 kmh WSW 4.0 mph6.4 kmh 29.21 in989.2 mb 0.00 in0.0 mm 0.00 in0.0 mm 0.00 in0.0 mm
08:55 AM 51.1°F10.6°C 46.4°F8.0°C 83% 2.1 mph W3.4 kmh W 4.0 mph6.4 kmh 29.21 in989.2 mb 0.00 in0.0 mm 0.00 in0.0 mm 0.00 in0.0 mm
09:00 AM 51.3°F10.7°C 46.4°F8.0°C 83% 2.7 mph WSW4.3 kmh WSW 4.0 mph6.4 kmh 29.21 in989.2 mb 0.00 in0.0 mm 0.00 in0.0 mm 0.00 in0.0 mm
09:05 AM 51.4°F10.8°C 46.4°F8.0°C 83% 2.8 mph WSW4.5 kmh WSW 4.0 mph6.4 kmh 29.21 in989.2 mb 0.00 in0.0 mm 0.00 in0.0 mm 0.00 in0.0 mm
09:10 AM 51.6°F10.9°C 46.4°F8.0°C 83% 2.8 mph WSW4.5 kmh WSW 5.4 mph8.7 kmh 29.21 in989.2 mb 0.00 in0.0 mm 0.00 in0.0 mm 0.00 in0.0 mm
09:15 AM 52.0°F11.1°C 46.4°F8.0°C 83% 2.8 mph SW4.5 kmh SW 5.4 mph8.7 kmh 29.27 in991.2 mb 0.00 in0.0 mm 0.00 in0.0 mm 0.00 in0.0 mm
09:20 AM 52.3°F11.3°C 48.2°F9.0°C 83% 3.2 mph WSW5.1 kmh WSW 7.6 mph12.2 kmh 29.27 in991.2 mb 0.00 in0.0 mm 0.00 in0.0 mm 0.00 in0.0 mm
09:25 AM 52.5°F11.4°C 48.2°F9.0°C 82% 3.7 mph WSW6.0 kmh WSW 7.6 mph12.2 kmh 29.27 in991.2 mb 0.00 in0.0 mm 0.00 in0.0 mm 0.00 in0.0 mm
09:30 AM 52.7°F11.5°C 48.2°F9.0°C 82% 4.1 mph WSW6.6 kmh WSW 5.8 mph9.3 kmh 29.30 in992.2 mb 0.00 in0.0 mm 0.00 in0.0 mm 0.00 in0.0 mm
09:35 AM 52.9°F11.6°C 48.2°F9.0°C 82% 5.2 mph WSW8.4 kmh WSW 8.5 mph13.7 kmh 29.30 in992.2 mb 0.00 in0.0 mm 0.00 in0.0 mm 0.00 in0.0 mm
09:40 AM 52.9°F11.6°C 48.2°F9.0°C 82% 5.1 mph SW8.2 kmh SW 8.5 mph13.7 kmh 29.30 in992.2 mb 0.00 in0.0 mm 0.00 in0.0 mm 0.00 in0.0 mm
09:45 AM 53.2°F11.8°C 48.2°F9.0°C 82% 4.1 mph WSW6.6 kmh WSW 8.5 mph13.7 kmh 29.30 in992.2 mb 0.00 in0.0 mm 0.00 in0.0 mm 0.00 in0.0 mm
09:50 AM 53.6°F12.0°C 48.2°F9.0°C 82% 3.5 mph WSW5.6 kmh WSW 4.3 mph6.9 kmh 29.30 in992.2 mb 0.00 in0.0 mm 0.00 in0.0 mm 0.00 in0.0 mm
09:55 AM 54.0°F12.2°C 48.2°F9.0°C 82% 3.6 mph WSW5.8 kmh WSW 6.3 mph10.1 kmh 29.30 in992.2 mb 0.00 in0.0 mm 0.00 in0.0 mm 0.00 in0.0 mm
10:00 AM 54.3°F12.4°C 50.0°F10.0°C 82% 3.9 mph SW6.3 kmh SW 6.9 mph11.1 kmh 29.30 in992.2 mb 0.00 in0.0 mm 0.00 in0.0 mm 0.00 in0.0 mm
10:05 AM 54.7°F12.6°C 50.0°F10.0°C 81% 5.6 mph WSW9.0 kmh WSW 9.6 mph15.4 kmh 29.30 in992.2 mb 0.00 in0.0 mm 0.00 in0.0 mm 0.00 in0.0 mm
10:10 AM 54.7°F12.6°C 50.0°F10.0°C 81% 7.1 mph WSW11.4 kmh WSW 10.3 mph16.6 kmh 29.30 in992.2 mb 0.00 in0.0 mm 0.00 in0.0 mm 0.00 in0.0 mm
10:15 AM 54.7°F12.6°C 50.0°F10.0°C 81% 6.6 mph WSW10.6 kmh WSW 10.3 mph16.6 kmh 29.30 in992.2 mb 0.00 in0.0 mm 0.00 in0.0 mm 0.00 in0.0 mm
10:20 AM 55.2°F12.9°C 50.0°F10.0°C 81% 4.7 mph W7.6 kmh W 7.8 mph12.6 kmh 29.30 in992.2 mb 0.00 in0.0 mm 0.00 in0.0 mm 0.00 in0.0 mm
10:25 AM 55.6°F13.1°C 50.0°F10.0°C 80% 3.6 mph WSW5.8 kmh WSW 7.4 mph11.9 kmh 29.30 in992.2 mb 0.00 in0.0 mm 0.00 in0.0 mm 0.00 in0.0 mm
10:30 AM 55.6°F13.1°C 50.0°F10.0°C 80% 5.0 mph WSW8.0 kmh WSW 8.5 mph13.7 kmh 29.33 in993.2 mb 0.00 in0.0 mm 0.00 in0.0 mm 0.00 in0.0 mm
10:35 AM 55.6°F13.1°C 50.0°F10.0°C 80% 5.8 mph WSW9.3 kmh WSW 8.5 mph13.7 kmh 29.33 in993.2 mb 0.00 in0.0 mm 0.00 in0.0 mm 0.00 in0.0 mm
10:40 AM 55.8°F13.2°C 50.0°F10.0°C 80% 4.3 mph WSW6.9 kmh WSW 5.6 mph9.0 kmh 29.33 in993.2 mb 0.00 in0.0 mm 0.00 in0.0 mm 0.00 in0.0 mm
10:45 AM 56.1°F13.4°C 50.0°F10.0°C 80% 4.2 mph WSW6.8 kmh WSW 6.5 mph10.5 kmh 29.33 in993.2 mb 0.00 in0.0 mm 0.00 in0.0 mm 0.00 in0.0 mm
10:50 AM 56.1°F13.4°C 50.0°F10.0°C 80% 4.1 mph WSW6.6 kmh WSW 6.5 mph10.5 kmh 29.33 in993.2 mb 0.00 in0.0 mm 0.00 in0.0 mm 0.00 in0.0 mm
10:55 AM 56.3°F13.5°C 50.0°F10.0°C 79% 3.5 mph WSW5.6 kmh WSW 8.1 mph13.0 kmh 29.33 in993.2 mb 0.00 in0.0 mm 0.00 in0.0 mm 0.00 in0.0 mm
11:00 AM 56.1°F13.4°C 50.0°F10.0°C 80% 4.1 mph WSW6.6 kmh WSW 8.1 mph13.0 kmh 29.33 in993.2 mb 0.00 in0.0 mm 0.00 in0.0 mm 0.00 in0.0 mm
11:05 AM 56.5°F13.6°C 51.8°F11.0°C 80% 3.7 mph WSW6.0 kmh WSW 8.1 mph13.0 kmh 29.33 in993.2 mb 0.00 in0.0 mm 0.00 in0.0 mm 0.00 in0.0 mm
11:10 AM 56.5°F13.6°C 50.0°F10.0°C 79% 3.9 mph WSW6.3 kmh WSW 8.7 mph14.0 kmh 29.33 in993.2 mb 0.00 in0.0 mm 0.00 in0.0 mm 0.00 in0.0 mm
11:15 AM 58.5°F14.7°C 51.8°F11.0°C 79% 4.6 mph SW7.4 kmh SW 8.7 mph14.0 kmh 29.33 in993.2 mb 0.00 in0.0 mm 0.00 in0.0 mm 0.00 in0.0 mm
11:20 AM 57.6°F14.2°C 51.8°F11.0°C 79% 5.0 mph WSW8.0 kmh WSW 7.2 mph11.6 kmh 29.33 in993.2 mb 0.00 in0.0 mm 0.00 in0.0 mm 0.00 in0.0 mm
11:25 AM 58.1°F14.5°C 51.8°F11.0°C 79% 5.1 mph W8.2 kmh W 7.2 mph11.6 kmh 29.33 in993.2 mb 0.00 in0.0 mm 0.00 in0.0 mm 0.00 in0.0 mm
11:30 AM 61.0°F16.1°C 53.6°F12.0°C 78% 5.8 mph WSW9.3 kmh WSW 10.1 mph16.3 kmh 29.33 in993.2 mb 0.00 in0.0 mm 0.00 in0.0 mm 0.00 in0.0 mm
11:35 AM 59.9°F15.5°C 53.6°F12.0°C 76% 7.5 mph WSW12.1 kmh WSW 10.1 mph16.3 kmh 29.33 in993.2 mb 0.00 in0.0 mm 0.00 in0.0 mm 0.00 in0.0 mm
11:40 AM 58.5°F14.7°C 51.8°F11.0°C 77% 7.4 mph WSW11.9 kmh WSW 10.1 mph16.3 kmh 29.33 in993.2 mb 0.00 in0.0 mm 0.00 in0.0 mm 0.00 in0.0 mm
11:45 AM 58.3°F14.6°C 51.8°F11.0°C 77% 5.3 mph W8.5 kmh W 7.4 mph11.9 kmh 29.33 in993.2 mb 0.00 in0.0 mm 0.00 in0.0 mm 0.00 in0.0 mm
11:50 AM 61.7°F16.5°C 55.4°F13.0°C 75% 4.6 mph WSW7.4 kmh WSW 7.4 mph11.9 kmh 29.33 in993.2 mb 0.00 in0.0 mm 0.00 in0.0 mm 0.00 in0.0 mm
11:55 AM 61.5°F16.4°C 53.6°F12.0°C 73% 6.1 mph WSW9.8 kmh WSW 11.0 mph17.7 kmh 29.33 in993.2 mb 0.00 in0.0 mm 0.00 in0.0 mm 0.00 in0.0 mm
12:00 PM 62.4°F16.9°C 53.6°F12.0°C 72% 7.4 mph W11.9 kmh W 11.0 mph17.7 kmh 29.36 in994.2 mb 0.00 in0.0 mm 0.00 in0.0 mm 0.00 in0.0 mm
12:05 PM 62.6°F17.0°C 53.6°F12.0°C 71% 6.5 mph W10.5 kmh W 11.0 mph17.7 kmh 29.36 in994.2 mb 0.00 in0.0 mm 0.00 in0.0 mm 0.00 in0.0 mm
12:10 PM 62.4°F16.9°C 53.6°F12.0°C 71% 6.9 mph WSW11.1 kmh WSW 11.0 mph17.7 kmh 29.36 in994.2 mb 0.00 in0.0 mm 0.00 in0.0 mm 0.00 in0.0 mm
12:15 PM 62.8°F17.1°C 53.6°F12.0°C 70% 6.6 mph WSW10.6 kmh WSW 10.1 mph16.3 kmh 29.36 in994.2 mb 0.00 in0.0 mm 0.00 in0.0 mm 0.00 in0.0 mm
12:20 PM 62.6°F17.0°C 53.6°F12.0°C 70% 7.4 mph WSW11.9 kmh WSW 12.3 mph19.8 kmh 29.36 in994.2 mb 0.00 in0.0 mm 0.00 in0.0 mm 0.00 in0.0 mm
12:25 PM 63.5°F17.5°C 53.6°F12.0°C 69% 7.6 mph WSW12.2 kmh WSW 12.3 mph19.8 kmh 29.36 in994.2 mb 0.00 in0.0 mm 0.00 in0.0 mm 0.00 in0.0 mm
12:30 PM 61.0°F16.1°C 51.8°F11.0°C 72% 6.4 mph WSW10.3 kmh WSW 10.1 mph16.3 kmh 29.36 in994.2 mb 0.00 in0.0 mm 0.00 in0.0 mm 0.00 in0.0 mm
12:35 PM 60.6°F15.9°C 51.8°F11.0°C 73% 6.5 mph WSW10.5 kmh WSW 10.1 mph16.3 kmh 29.36 in994.2 mb 0.00 in0.0 mm 0.00 in0.0 mm 0.00 in0.0 mm
12:40 PM 61.7°F16.5°C 53.6°F12.0°C 71% 7.2 mph WSW11.6 kmh WSW 10.1 mph16.3 kmh 29.36 in994.2 mb 0.00 in0.0 mm 0.00 in0.0 mm 0.00 in0.0 mm
12:45 PM 62.1°F16.7°C 51.8°F11.0°C 70% 7.9 mph WSW12.7 kmh WSW 9.6 mph15.4 kmh 29.36 in994.2 mb 0.00 in0.0 mm 0.00 in0.0 mm 0.00 in0.0 mm
12:50 PM 63.1°F17.3°C 53.6°F12.0°C 69% 6.6 mph WSW10.6 kmh WSW 9.6 mph15.4 kmh 29.36 in994.2 mb 0.00 in0.0 mm 0.00 in0.0 mm 0.00 in0.0 mm
12:55 PM 63.0°F17.2°C 53.6°F12.0°C 68% 5.9 mph WSW9.5 kmh WSW 11.2 mph18.0 kmh 29.36 in994.2 mb 0.00 in0.0 mm 0.00 in0.0 mm 0.00 in0.0 mm
01:00 PM 63.7°F17.6°C 53.6°F12.0°C 68% 5.0 mph WSW8.0 kmh WSW 11.2 mph18.0 kmh 29.27 in991.2 mb 0.00 in0.0 mm 0.00 in0.0 mm 0.00 in0.0 mm
01:05 PM 62.1°F16.7°C 51.8°F11.0°C 69% 5.4 mph W8.7 kmh W 9.2 mph14.8 kmh 29.27 in991.2 mb 0.00 in0.0 mm 0.00 in0.0 mm 0.00 in0.0 mm
01:10 PM 61.2°F16.2°C 51.8°F11.0°C 70% 6.2 mph WSW10.0 kmh WSW 9.2 mph14.8 kmh 29.27 in991.2 mb 0.00 in0.0 mm 0.00 in0.0 mm 0.00 in0.0 mm
01:15 PM 60.6°F15.9°C 51.8°F11.0°C 70% 5.1 mph SW8.2 kmh SW 7.6 mph12.2 kmh 29.36 in994.2 mb 0.00 in0.0 mm 0.00 in0.0 mm 0.00 in0.0 mm
01:20 PM 60.4°F15.8°C 50.0°F10.0°C 70% 4.0 mph SW6.4 kmh SW 7.6 mph12.2 kmh 29.36 in994.2 mb 0.00 in0.0 mm 0.00 in0.0 mm 0.00 in0.0 mm
01:25 PM 60.6°F15.9°C 51.8°F11.0°C 71% 4.0 mph WSW6.4 kmh WSW 6.3 mph10.1 kmh 29.36 in994.2 mb 0.00 in0.0 mm 0.00 in0.0 mm 0.00 in0.0 mm
01:30 PM 60.6°F15.9°C 51.8°F11.0°C 71% 4.6 mph WSW7.4 kmh WSW 7.8 mph12.6 kmh 29.39 in995.3 mb 0.00 in0.0 mm 0.00 in0.0 mm 0.00 in0.0 mm
01:35 PM 60.6°F15.9°C 51.8°F11.0°C 72% 4.8 mph WSW7.7 kmh WSW 7.8 mph12.6 kmh 29.39 in995.3 mb 0.00 in0.0 mm 0.00 in0.0 mm 0.00 in0.0 mm
01:40 PM 60.3°F15.7°C 51.8°F11.0°C 71% 4.8 mph WSW7.7 kmh WSW 6.3 mph10.1 kmh 29.39 in995.3 mb 0.00 in0.0 mm 0.00 in0.0 mm 0.00 in0.0 mm
01:45 PM 60.8°F16.0°C 51.8°F11.0°C 72% 4.3 mph WSW6.9 kmh WSW 6.3 mph10.1 kmh 29.39 in995.3 mb 0.00 in0.0 mm 0.00 in0.0 mm 0.00 in0.0 mm
01:50 PM 61.2°F16.2°C 51.8°F11.0°C 71% 4.0 mph SW6.4 kmh SW 5.8 mph9.3 kmh 29.39 in995.3 mb 0.00 in0.0 mm 0.00 in0.0 mm 0.00 in0.0 mm
01:55 PM 60.8°F16.0°C 51.8°F11.0°C 71% 4.5 mph SW7.2 kmh SW 5.8 mph9.3 kmh 29.39 in995.3 mb 0.00 in0.0 mm 0.00 in0.0 mm 0.00 in0.0 mm
02:00 PM 60.1°F15.6°C 51.8°F11.0°C 72% 4.7 mph SW7.6 kmh SW 6.5 mph10.5 kmh 29.39 in995.3 mb 0.00 in0.0 mm 0.00 in0.0 mm 0.00 in0.0 mm
02:05 PM 59.9°F15.5°C 51.8°F11.0°C 72% 4.4 mph WSW7.1 kmh WSW 6.5 mph10.5 kmh 29.39 in995.3 mb 0.00 in0.0 mm 0.00 in0.0 mm 0.00 in0.0 mm
02:10 PM 59.7°F15.4°C 51.8°F11.0°C 72% 4.4 mph WSW7.1 kmh WSW 6.5 mph10.5 kmh 29.39 in995.3 mb 0.00 in0.0 mm 0.00 in0.0 mm 0.00 in0.0 mm
02:15 PM 59.5°F15.3°C 51.8°F11.0°C 73% 4.2 mph WSW6.8 kmh WSW 6.5 mph10.5 kmh 29.39 in995.3 mb 0.00 in0.0 mm 0.00 in0.0 mm 0.00 in0.0 mm
02:20 PM 59.4°F15.2°C 51.8°F11.0°C 73% 4.0 mph WSW6.4 kmh WSW 6.0 mph9.7 kmh 29.39 in995.3 mb 0.00 in0.0 mm 0.00 in0.0 mm 0.00 in0.0 mm
02:25 PM 59.4°F15.2°C 51.8°F11.0°C 73% 4.4 mph WSW7.1 kmh WSW 6.0 mph9.7 kmh 29.39 in995.3 mb 0.00 in0.0 mm 0.00 in0.0 mm 0.00 in0.0 mm
02:30 PM 59.2°F15.1°C 50.0°F10.0°C 73% 4.6 mph WSW7.4 kmh WSW 6.0 mph9.7 kmh 29.39 in995.3 mb 0.00 in0.0 mm 0.00 in0.0 mm 0.00 in0.0 mm
02:35 PM 59.2°F15.1°C 50.0°F10.0°C 73% 5.3 mph WSW8.5 kmh WSW 7.2 mph11.6 kmh 29.39 in995.3 mb 0.00 in0.0 mm 0.00 in0.0 mm 0.00 in0.0 mm
02:40 PM 59.7°F15.4°C 51.8°F11.0°C 72% 5.1 mph WSW8.2 kmh WSW 7.2 mph11.6 kmh 29.39 in995.3 mb 0.00 in0.0 mm 0.00 in0.0 mm 0.00 in0.0 mm
02:45 PM 60.3°F15.7°C 51.8°F11.0°C 73% 3.8 mph WSW6.1 kmh WSW 6.3 mph10.1 kmh 29.33 in993.2 mb 0.00 in0.0 mm 0.00 in0.0 mm 0.00 in0.0 mm
02:50 PM 60.1°F15.6°C 51.8°F11.0°C 72% 4.1 mph WSW6.6 kmh WSW 6.5 mph10.5 kmh 29.33 in993.2 mb 0.00 in0.0 mm 0.00 in0.0 mm 0.00 in0.0 mm
02:55 PM 60.3°F15.7°C 51.8°F11.0°C 72% 4.3 mph WSW6.9 kmh WSW 6.5 mph10.5 kmh 29.33 in993.2 mb 0.00 in0.0 mm 0.00 in0.0 mm 0.00 in0.0 mm
03:00 PM 60.3°F15.7°C 51.8°F11.0°C 72% 3.5 mph WSW5.6 kmh WSW 6.3 mph10.1 kmh 29.39 in995.3 mb 0.00 in0.0 mm 0.00 in0.0 mm 0.00 in0.0 mm
03:05 PM 60.3°F15.7°C 51.8°F11.0°C 72% 3.7 mph WSW6.0 kmh WSW 6.5 mph10.5 kmh 29.39 in995.3 mb 0.00 in0.0 mm 0.00 in0.0 mm 0.00 in0.0 mm
03:10 PM 60.3°F15.7°C 51.8°F11.0°C 72% 3.9 mph WSW6.3 kmh WSW 6.5 mph10.5 kmh 29.39 in995.3 mb 0.00 in0.0 mm 0.00 in0.0 mm 0.00 in0.0 mm
03:15 PM 60.1°F15.6°C 51.8°F11.0°C 73% 3.6 mph WSW5.8 kmh WSW 5.8 mph9.3 kmh 29.39 in995.3 mb 0.00 in0.0 mm 0.00 in0.0 mm 0.00 in0.0 mm
03:20 PM 59.7°F15.4°C 51.8°F11.0°C 72% 4.0 mph WSW6.4 kmh WSW 7.2 mph11.6 kmh 29.39 in995.3 mb 0.00 in0.0 mm 0.00 in0.0 mm 0.00 in0.0 mm
03:25 PM 59.5°F15.3°C 51.8°F11.0°C 72% 4.8 mph WSW7.7 kmh WSW 8.7 mph14.0 kmh 29.39 in995.3 mb 0.00 in0.0 mm 0.00 in0.0 mm 0.00 in0.0 mm
03:30 PM 59.4°F15.2°C 51.8°F11.0°C 73% 4.9 mph WSW7.9 kmh WSW 9.4 mph15.1 kmh 29.41 in995.9 mb 0.00 in0.0 mm 0.00 in0.0 mm 0.00 in0.0 mm
03:35 PM 59.0°F15.0°C 50.0°F10.0°C 73% 5.2 mph WSW8.4 kmh WSW 9.4 mph15.1 kmh 29.41 in995.9 mb 0.00 in0.0 mm 0.00 in0.0 mm 0.00 in0.0 mm
03:40 PM 59.2°F15.1°C 50.0°F10.0°C 72% 4.5 mph WSW7.2 kmh WSW 8.1 mph13.0 kmh 29.41 in995.9 mb 0.00 in0.0 mm 0.00 in0.0 mm 0.00 in0.0 mm
03:45 PM 59.0°F15.0°C 50.0°F10.0°C 72% 2.6 mph WSW4.2 kmh WSW 4.3 mph6.9 kmh 29.39 in995.3 mb 0.00 in0.0 mm 0.00 in0.0 mm 0.00 in0.0 mm
03:50 PM 59.0°F15.0°C 50.0°F10.0°C 73% 2.4 mph WSW3.9 kmh WSW 4.3 mph6.9 kmh 29.39 in995.3 mb 0.00 in0.0 mm 0.00 in0.0 mm 0.00 in0.0 mm
03:55 PM 58.8°F14.9°C 50.0°F10.0°C 73% 3.3 mph WSW5.3 kmh WSW 5.6 mph9.0 kmh 29.39 in995.3 mb 0.00 in0.0 mm 0.00 in0.0 mm 0.00 in0.0 mm
04:00 PM 58.6°F14.8°C 50.0°F10.0°C 73% 3.8 mph WSW6.1 kmh WSW 6.0 mph9.7 kmh 29.45 in997.3 mb 0.00 in0.0 mm 0.00 in0.0 mm 0.00 in0.0 mm
04:05 PM 58.3°F14.6°C 50.0°F10.0°C 74% 4.4 mph WSW7.1 kmh WSW 6.0 mph9.7 kmh 29.45 in997.3 mb 0.00 in0.0 mm 0.00 in0.0 mm 0.00 in0.0 mm
04:10 PM 58.1°F14.5°C 50.0°F10.0°C 74% 4.0 mph WSW6.4 kmh WSW 6.0 mph9.7 kmh 29.45 in997.3 mb 0.00 in0.0 mm 0.00 in0.0 mm 0.00 in0.0 mm
04:15 PM 57.9°F14.4°C 50.0°F10.0°C 74% 3.5 mph WSW5.6 kmh WSW 6.0 mph9.7 kmh 29.45 in997.3 mb 0.00 in0.0 mm 0.00 in0.0 mm 0.00 in0.0 mm
04:20 PM 57.9°F14.4°C 50.0°F10.0°C 74% 3.1 mph WSW5.0 kmh WSW 6.0 mph9.7 kmh 29.45 in997.3 mb 0.00 in0.0 mm 0.00 in0.0 mm 0.00 in0.0 mm
04:25 PM 57.7°F14.3°C 50.0°F10.0°C 74% 2.2 mph WSW3.5 kmh WSW 4.0 mph6.4 kmh 29.45 in997.3 mb 0.00 in0.0 mm 0.00 in0.0 mm 0.00 in0.0 mm
04:30 PM 57.6°F14.2°C 50.0°F10.0°C 74% 2.1 mph WSW3.4 kmh WSW 4.0 mph6.4 kmh 29.41 in995.9 mb 0.00 in0.0 mm 0.00 in0.0 mm 0.00 in0.0 mm
04:35 PM 57.2°F14.0°C 50.0°F10.0°C 74% 2.4 mph WSW3.9 kmh WSW 4.0 mph6.4 kmh 29.41 in995.9 mb 0.00 in0.0 mm 0.00 in0.0 mm 0.00 in0.0 mm
04:40 PM 57.0°F13.9°C 50.0°F10.0°C 74% 2.7 mph WSW4.3 kmh WSW 4.0 mph6.4 kmh 29.41 in995.9 mb 0.00 in0.0 mm 0.00 in0.0 mm 0.00 in0.0 mm
04:45 PM 56.8°F13.8°C 50.0°F10.0°C 75% 2.2 mph WSW3.5 kmh WSW 3.6 mph5.8 kmh 29.45 in997.3 mb 0.00 in0.0 mm 0.00 in0.0 mm 0.00 in0.0 mm
04:50 PM 56.7°F13.7°C 50.0°F10.0°C 75% 1.9 mph WSW3.1 kmh WSW 2.9 mph4.7 kmh 29.45 in997.3 mb 0.00 in0.0 mm 0.00 in0.0 mm 0.00 in0.0 mm
04:55 PM 56.5°F13.6°C 50.0°F10.0°C 75% 0.9 mph SW1.4 kmh SW 2.2 mph3.5 kmh 29.45 in997.3 mb 0.00 in0.0 mm 0.00 in0.0 mm 0.00 in0.0 mm
05:00 PM 56.3°F13.5°C 50.0°F10.0°C 75% 0.3 mph S0.5 kmh S 1.3 mph2.1 kmh 29.45 in997.3 mb 0.00 in0.0 mm 0.00 in0.0 mm 0.00 in0.0 mm
05:05 PM 55.9°F13.3°C 48.2°F9.0°C 76% 1.0 mph SW1.6 kmh SW 2.9 mph4.7 kmh 29.45 in997.3 mb 0.00 in0.0 mm 0.00 in0.0 mm 0.00 in0.0 mm
05:10 PM 55.8°F13.2°C 48.2°F9.0°C 76% 1.7 mph SW2.7 kmh SW 2.9 mph4.7 kmh 29.45 in997.3 mb 0.00 in0.0 mm 0.00 in0.0 mm 0.00 in0.0 mm
05:15 PM 55.4°F13.0°C 48.2°F9.0°C 76% 2.2 mph WSW3.5 kmh WSW 3.6 mph5.8 kmh 29.45 in997.3 mb 0.00 in0.0 mm 0.00 in0.0 mm 0.00 in0.0 mm
05:20 PM 55.2°F12.9°C 48.2°F9.0°C 76% 2.8 mph WSW4.5 kmh WSW 3.6 mph5.8 kmh 29.45 in997.3 mb 0.00 in0.0 mm 0.00 in0.0 mm 0.00 in0.0 mm
05:25 PM 55.0°F12.8°C 48.2°F9.0°C 76% 2.2 mph WSW3.5 kmh WSW 3.1 mph5.0 kmh 29.45 in997.3 mb 0.00 in0.0 mm 0.00 in0.0 mm 0.00 in0.0 mm
05:30 PM 54.7°F12.6°C 48.2°F9.0°C 76% 1.5 mph WSW2.4 kmh WSW 3.1 mph5.0 kmh 29.45 in997.3 mb 0.00 in0.0 mm 0.00 in0.0 mm 0.00 in0.0 mm
05:35 PM 54.5°F12.5°C 48.2°F9.0°C 76% 1.0 mph WSW1.6 kmh WSW 1.6 mph2.6 kmh 29.45 in997.3 mb 0.00 in0.0 mm 0.00 in0.0 mm 0.00 in0.0 mm
05:40 PM 54.3°F12.4°C 48.2°F9.0°C 77% 0.8 mph SSW1.3 kmh SSW 1.6 mph2.6 kmh 29.45 in997.3 mb 0.00 in0.0 mm 0.00 in0.0 mm 0.00 in0.0 mm
05:45 PM 54.1°F12.3°C 48.2°F9.0°C 77% 0.6 mph S1.0 kmh S 1.6 mph2.6 kmh 29.45 in997.3 mb 0.00 in0.0 mm 0.00 in0.0 mm 0.00 in0.0 mm
05:50 PM 53.8°F12.1°C 48.2°F9.0°C 77% 0.1 mph S0.2 kmh S 0.9 mph1.4 kmh 29.45 in997.3 mb 0.00 in0.0 mm 0.00 in0.0 mm 0.00 in0.0 mm
05:55 PM 53.4°F11.9°C 46.4°F8.0°C 77% Calm Calm -- 29.45 in997.3 mb 0.00 in0.0 mm 0.00 in0.0 mm 0.00 in0.0 mm
06:00 PM 53.1°F11.7°C 46.4°F8.0°C 77% Calm Calm -- 29.47 in998.0 mb 0.00 in0.0 mm 0.00 in0.0 mm 0.00 in0.0 mm
06:05 PM 52.9°F11.6°C 46.4°F8.0°C 77% Calm Calm -- 29.47 in998.0 mb 0.00 in0.0 mm 0.00 in0.0 mm 0.00 in0.0 mm
06:10 PM 52.5°F11.4°C 46.4°F8.0°C 77% Calm Calm -- 29.47 in998.0 mb 0.00 in0.0 mm 0.00 in0.0 mm 0.00 in0.0 mm
06:15 PM 52.5°F11.4°C 46.4°F8.0°C 78% 0.1 mph SSE0.2 kmh SSE 0.9 mph1.4 kmh 29.45 in997.3 mb 0.00 in0.0 mm 0.00 in0.0 mm 0.00 in0.0 mm
06:20 PM 52.3°F11.3°C 46.4°F8.0°C 78% 0.1 mph SSE0.2 kmh SSE 0.9 mph1.4 kmh 29.45 in997.3 mb 0.00 in0.0 mm 0.00 in0.0 mm 0.00 in0.0 mm
06:25 PM 52.2°F11.2°C 46.4°F8.0°C 78% 0.1 mph SE0.2 kmh SE 0.9 mph1.4 kmh 29.45 in997.3 mb 0.00 in0.0 mm 0.00 in0.0 mm 0.00 in0.0 mm
06:30 PM 51.6°F10.9°C 44.6°F7.0°C 78% 0.2 mph ESE0.3 kmh ESE 1.3 mph2.1 kmh 29.47 in998.0 mb 0.00 in0.0 mm 0.00 in0.0 mm 0.00 in0.0 mm
06:35 PM 51.4°F10.8°C 44.6°F7.0°C 78% 0.1 mph E0.2 kmh E 1.3 mph2.1 kmh 29.47 in998.0 mb 0.00 in0.0 mm 0.00 in0.0 mm 0.00 in0.0 mm
06:40 PM 50.9°F10.5°C 44.6°F7.0°C 78% Calm Calm -- 29.47 in998.0 mb 0.00 in0.0 mm 0.00 in0.0 mm 0.00 in0.0 mm
06:45 PM 50.7°F10.4°C 44.6°F7.0°C 78% 0.2 mph E0.3 kmh E 1.1 mph1.8 kmh 29.47 in998.0 mb 0.00 in0.0 mm 0.00 in0.0 mm 0.00 in0.0 mm
06:50 PM 50.4°F10.2°C 44.6°F7.0°C 78% 0.2 mph E0.3 kmh E 1.1 mph1.8 kmh 29.47 in998.0 mb 0.00 in0.0 mm 0.00 in0.0 mm 0.00 in0.0 mm
06:55 PM 50.2°F10.1°C 42.8°F6.0°C 78% Calm Calm -- 29.47 in998.0 mb 0.00 in0.0 mm 0.00 in0.0 mm 0.00 in0.0 mm
07:00 PM 49.8°F9.9°C 42.8°F6.0°C 78% 0.2 mph SE0.3 kmh SE 1.1 mph1.8 kmh 29.47 in998.0 mb 0.00 in0.0 mm 0.00 in0.0 mm 0.00 in0.0 mm
07:05 PM 49.8°F9.9°C 44.6°F7.0°C 79% 0.2 mph SE0.3 kmh SE 1.1 mph1.8 kmh 29.47 in998.0 mb 0.00 in0.0 mm 0.00 in0.0 mm 0.00 in0.0 mm
07:10 PM 49.8°F9.9°C 44.6°F7.0°C 79% 0.1 mph SE0.2 kmh SE 0.9 mph1.4 kmh 29.47 in998.0 mb 0.00 in0.0 mm 0.00 in0.0 mm 0.00 in0.0 mm
07:15 PM 49.5°F9.7°C 42.8°F6.0°C 79% 0.1 mph SE0.2 kmh SE 0.9 mph1.4 kmh 29.47 in998.0 mb 0.00 in0.0 mm 0.00 in0.0 mm 0.00 in0.0 mm
07:20 PM 49.3°F9.6°C 42.8°F6.0°C 79% Calm Calm -- 29.47 in998.0 mb 0.00 in0.0 mm 0.00 in0.0 mm 0.00 in0.0 mm
07:25 PM 49.3°F9.6°C 42.8°F6.0°C 79% Calm Calm -- 29.47 in998.0 mb 0.00 in0.0 mm 0.00 in0.0 mm 0.00 in0.0 mm
07:30 PM 48.9°F9.4°C 42.8°F6.0°C 79% Calm Calm -- 29.47 in998.0 mb 0.00 in0.0 mm 0.00 in0.0 mm 0.00 in0.0 mm
07:35 PM 48.6°F9.2°C 42.8°F6.0°C 79% Calm Calm -- 29.47 in998.0 mb 0.00 in0.0 mm 0.00 in0.0 mm 0.00 in0.0 mm
07:40 PM 48.2°F9.0°C 42.8°F6.0°C 79% Calm Calm -- 29.47 in998.0 mb 0.00 in0.0 mm 0.00 in0.0 mm 0.00 in0.0 mm
07:45 PM 48.0°F8.9°C 42.8°F6.0°C 79% Calm Calm -- 29.50 in999.0 mb 0.00 in0.0 mm 0.00 in0.0 mm 0.00 in0.0 mm
07:50 PM 47.7°F8.7°C 42.8°F6.0°C 79% Calm Calm -- 29.50 in999.0 mb 0.00 in0.0 mm 0.00 in0.0 mm 0.00 in0.0 mm
07:55 PM 47.3°F8.5°C 42.8°F6.0°C 79% Calm Calm -- 29.50 in999.0 mb 0.00 in0.0 mm 0.00 in0.0 mm 0.00 in0.0 mm
08:00 PM 47.1°F8.4°C 41.0°F5.0°C 79% 0.2 mph ENE0.3 kmh ENE 0.9 mph1.4 kmh 29.47 in998.0 mb 0.00 in0.0 mm 0.00 in0.0 mm 0.00 in0.0 mm
08:05 PM 46.8°F8.2°C 41.0°F5.0°C 79% 0.2 mph ENE0.3 kmh ENE 0.9 mph1.4 kmh 29.47 in998.0 mb 0.00 in0.0 mm 0.00 in0.0 mm 0.00 in0.0 mm
08:10 PM 46.6°F8.1°C 41.0°F5.0°C 79% Calm Calm -- 29.47 in998.0 mb 0.00 in0.0 mm 0.00 in0.0 mm 0.00 in0.0 mm
08:15 PM 46.4°F8.0°C 41.0°F5.0°C 79% Calm Calm -- 29.50 in999.0 mb 0.00 in0.0 mm 0.00 in0.0 mm 0.00 in0.0 mm
08:20 PM 46.0°F7.8°C 39.2°F4.0°C 79% 0.2 mph NE0.3 kmh NE 1.3 mph2.1 kmh 29.50 in999.0 mb 0.00 in0.0 mm 0.00 in0.0 mm 0.00 in0.0 mm
08:25 PM 46.2°F7.9°C 41.0°F5.0°C 80% 0.9 mph NE1.4 kmh NE 1.6 mph2.6 kmh 29.50 in999.0 mb 0.00 in0.0 mm 0.00 in0.0 mm 0.00 in0.0 mm
08:30 PM 46.0°F7.8°C 41.0°F5.0°C 80% 0.8 mph NE1.3 kmh NE 1.6 mph2.6 kmh 29.50 in999.0 mb 0.00 in0.0 mm 0.00 in0.0 mm 0.00 in0.0 mm
08:35 PM 45.7°F7.6°C 39.2°F4.0°C 79% 0.2 mph NE0.3 kmh NE 0.9 mph1.4 kmh 29.50 in999.0 mb 0.00 in0.0 mm 0.00 in0.0 mm 0.00 in0.0 mm
08:40 PM 45.7°F7.6°C 41.0°F5.0°C 80% 0.5 mph NE0.8 kmh NE 1.6 mph2.6 kmh 29.50 in999.0 mb 0.00 in0.0 mm 0.00 in0.0 mm 0.00 in0.0 mm
08:45 PM 45.7°F7.6°C 41.0°F5.0°C 80% 1.3 mph NE2.1 kmh NE 2.2 mph3.5 kmh 29.50 in999.0 mb 0.00 in0.0 mm 0.00 in0.0 mm 0.00 in0.0 mm
08:50 PM 45.3°F7.4°C 39.2°F4.0°C 80% 1.4 mph NE2.3 kmh NE 2.2 mph3.5 kmh 29.50 in999.0 mb 0.00 in0.0 mm 0.00 in0.0 mm 0.00 in0.0 mm
08:55 PM 45.1°F7.3°C 39.2°F4.0°C 80% 1.0 mph ENE1.6 kmh ENE 1.6 mph2.6 kmh 29.50 in999.0 mb 0.00 in0.0 mm 0.00 in0.0 mm 0.00 in0.0 mm
09:00 PM 45.0°F7.2°C 39.2°F4.0°C 80% 0.6 mph E1.0 kmh E 1.1 mph1.8 kmh 29.50 in999.0 mb 0.00 in0.0 mm 0.00 in0.0 mm 0.00 in0.0 mm
09:05 PM 45.0°F7.2°C 39.2°F4.0°C 80% 0.2 mph E0.3 kmh E 1.1 mph1.8 kmh 29.50 in999.0 mb 0.00 in0.0 mm 0.00 in0.0 mm 0.00 in0.0 mm
09:10 PM 45.1°F7.3°C 39.2°F4.0°C 81% Calm Calm -- 29.50 in999.0 mb 0.00 in0.0 mm 0.00 in0.0 mm 0.00 in0.0 mm
09:15 PM 45.0°F7.2°C 39.2°F4.0°C 81% Calm Calm -- 29.50 in999.0 mb 0.00 in0.0 mm 0.00 in0.0 mm 0.00 in0.0 mm
09:20 PM 45.0°F7.2°C 39.2°F4.0°C 81% Calm Calm -- 29.50 in999.0 mb 0.00 in0.0 mm 0.00 in0.0 mm 0.00 in0.0 mm
09:25 PM 44.4°F6.9°C 39.2°F4.0°C 81% Calm Calm -- 29.50 in999.0 mb 0.00 in0.0 mm 0.00 in0.0 mm 0.00 in0.0 mm
09:30 PM 44.1°F6.7°C 39.2°F4.0°C 80% 0.1 mph SE0.2 kmh SE 0.9 mph1.4 kmh 29.50 in999.0 mb 0.00 in0.0 mm 0.00 in0.0 mm 0.00 in0.0 mm
09:35 PM 43.7°F6.5°C 39.2°F4.0°C 80% 0.1 mph SE0.2 kmh SE 0.9 mph1.4 kmh 29.50 in999.0 mb 0.00 in0.0 mm 0.00 in0.0 mm 0.00 in0.0 mm
09:40 PM 43.5°F6.4°C 37.4°F3.0°C 80% 0.2 mph NNW0.3 kmh NNW 1.1 mph1.8 kmh 29.50 in999.0 mb 0.00 in0.0 mm 0.00 in0.0 mm 0.00 in0.0 mm
09:45 PM 43.3°F6.3°C 37.4°F3.0°C 80% 0.4 mph NNW0.6 kmh NNW 1.1 mph1.8 kmh 29.50 in999.0 mb 0.00 in0.0 mm 0.00 in0.0 mm 0.00 in0.0 mm
09:50 PM 43.2°F6.2°C 37.4°F3.0°C 80% 0.8 mph NNE1.3 kmh NNE 2.0 mph3.2 kmh 29.50 in999.0 mb 0.00 in0.0 mm 0.00 in0.0 mm 0.00 in0.0 mm
09:55 PM 43.2°F6.2°C 37.4°F3.0°C 80% 1.3 mph NE2.1 kmh NE 2.0 mph3.2 kmh 29.50 in999.0 mb 0.00 in0.0 mm 0.00 in0.0 mm 0.00 in0.0 mm
10:00 PM 43.0°F6.1°C 37.4°F3.0°C 80% 1.3 mph NE2.1 kmh NE 2.0 mph3.2 kmh 29.53 in1000.0 mb 0.00 in0.0 mm 0.00 in0.0 mm 0.00 in0.0 mm
10:05 PM 43.0°F6.1°C 37.4°F3.0°C 81% 1.2 mph NE1.9 kmh NE 2.0 mph3.2 kmh 29.53 in1000.0 mb 0.00 in0.0 mm 0.00 in0.0 mm 0.00 in0.0 mm
10:10 PM 43.0°F6.1°C 37.4°F3.0°C 81% 1.3 mph NE2.1 kmh NE 2.2 mph3.5 kmh 29.53 in1000.0 mb 0.00 in0.0 mm 0.00 in0.0 mm 0.00 in0.0 mm
10:15 PM 42.8°F6.0°C 37.4°F3.0°C 81% 1.4 mph NE2.3 kmh NE 2.2 mph3.5 kmh 29.53 in1000.0 mb 0.00 in0.0 mm 0.00 in0.0 mm 0.00 in0.0 mm
10:20 PM 42.6°F5.9°C 37.4°F3.0°C 81% 1.3 mph NE2.1 kmh NE 2.0 mph3.2 kmh 29.53 in1000.0 mb 0.00 in0.0 mm 0.00 in0.0 mm 0.00 in0.0 mm
10:25 PM 42.6°F5.9°C 37.4°F3.0°C 81% 1.4 mph NE2.3 kmh NE 2.2 mph3.5 kmh 29.53 in1000.0 mb 0.00 in0.0 mm 0.00 in0.0 mm 0.00 in0.0 mm
10:30 PM 42.4°F5.8°C 37.4°F3.0°C 81% 1.3 mph NE2.1 kmh NE 2.2 mph3.5 kmh 29.24 in990.2 mb 0.00 in0.0 mm 0.00 in0.0 mm 0.00 in0.0 mm
10:35 PM 42.3°F5.7°C 37.4°F3.0°C 81% 1.0 mph NE1.6 kmh NE 1.6 mph2.6 kmh 29.24 in990.2 mb 0.00 in0.0 mm 0.00 in0.0 mm 0.00 in0.0 mm
10:40 PM 42.1°F5.6°C 37.4°F3.0°C 81% 0.6 mph NE1.0 kmh NE 1.6 mph2.6 kmh 29.24 in990.2 mb 0.00 in0.0 mm 0.00 in0.0 mm 0.00 in0.0 mm
10:45 PM 41.9°F5.5°C 37.4°F3.0°C 81% 0.4 mph NE0.6 kmh NE 2.0 mph3.2 kmh 29.53 in1000.0 mb 0.00 in0.0 mm 0.00 in0.0 mm 0.00 in0.0 mm
10:50 PM 41.9°F5.5°C 37.4°F3.0°C 81% 0.9 mph NE1.4 kmh NE 2.5 mph4.0 kmh 29.53 in1000.0 mb 0.00 in0.0 mm 0.00 in0.0 mm 0.00 in0.0 mm
10:55 PM 42.3°F5.7°C 37.4°F3.0°C 82% 1.5 mph NE2.4 kmh NE 2.7 mph4.3 kmh 29.53 in1000.0 mb 0.00 in0.0 mm 0.00 in0.0 mm 0.00 in0.0 mm
11:00 PM 42.4°F5.8°C 37.4°F3.0°C 82% 2.0 mph ENE3.2 kmh ENE 3.1 mph5.0 kmh 29.53 in1000.0 mb 0.00 in0.0 mm 0.00 in0.0 mm 0.00 in0.0 mm
11:05 PM 41.9°F5.5°C 37.4°F3.0°C 82% 2.0 mph ENE3.2 kmh ENE 3.1 mph5.0 kmh 29.53 in1000.0 mb 0.00 in0.0 mm 0.00 in0.0 mm 0.00 in0.0 mm
11:10 PM 41.9°F5.5°C 37.4°F3.0°C 82% 1.4 mph NE2.3 kmh NE 2.5 mph4.0 kmh 29.53 in1000.0 mb 0.00 in0.0 mm 0.00 in0.0 mm 0.00 in0.0 mm
11:15 PM 41.9°F5.5°C 37.4°F3.0°C 82% 1.5 mph NE2.4 kmh NE 2.5 mph4.0 kmh 29.53 in1000.0 mb 0.00 in0.0 mm 0.00 in0.0 mm 0.00 in0.0 mm
11:20 PM 41.9°F5.5°C 37.4°F3.0°C 82% 1.4 mph NE2.3 kmh NE 2.5 mph4.0 kmh 29.53 in1000.0 mb 0.00 in0.0 mm 0.00 in0.0 mm 0.00 in0.0 mm
11:25 PM 41.7°F5.4°C 37.4°F3.0°C 82% 1.0 mph NE1.6 kmh NE 1.6 mph2.6 kmh 29.53 in1000.0 mb 0.00 in0.0 mm 0.00 in0.0 mm 0.00 in0.0 mm
11:30 PM 41.4°F5.2°C 37.4°F3.0°C 82% 0.9 mph NE1.4 kmh NE 1.6 mph2.6 kmh 29.50 in999.0 mb 0.00 in0.0 mm 0.00 in0.0 mm 0.00 in0.0 mm
11:35 PM 41.4°F5.2°C 37.4°F3.0°C 82% 0.9 mph NE1.4 kmh NE 2.5 mph4.0 kmh 29.50 in999.0 mb 0.00 in0.0 mm 0.00 in0.0 mm 0.00 in0.0 mm
11:40 PM 41.5°F5.3°C 37.4°F3.0°C 82% 1.3 mph NE2.1 kmh NE 2.5 mph4.0 kmh 29.50 in999.0 mb 0.00 in0.0 mm 0.00 in0.0 mm 0.00 in0.0 mm
11:45 PM 41.4°F5.2°C 37.4°F3.0°C 82% 1.3 mph NE2.1 kmh NE 2.5 mph4.0 kmh 29.53 in1000.0 mb 0.00 in0.0 mm 0.00 in0.0 mm 0.00 in0.0 mm
11:50 PM 41.0°F5.0°C 37.4°F3.0°C 82% 0.8 mph NE1.3 kmh NE 2.5 mph4.0 kmh 29.53 in1000.0 mb 0.00 in0.0 mm 0.00 in0.0 mm 0.00 in0.0 mm
11:55 PM 41.0°F5.0°C 37.4°F3.0°C 82% 0.9 mph NE1.4 kmh NE 2.5 mph4.0 kmh 29.53 in1000.0 mb 0.00 in0.0 mm 0.00 in0.0 mm 0.00 in0.0 mm